Time;durP1;ratioP1;P1;durP2;ratioP2;P2;SDS_P1;SDS_P2;PMS_P1;PMS_P2;Temp;Humidity;BMP_temperature;BMP_pressure;BME280_temperature;BME280_humidity;BME280_pressure;Samples;Min_cycle;Max_cycle;Signal;HPM_P1;HPM_P2
2022/03/03 00:01:08;;;;;;;5.47;3.50;;;22.70;28.40;;;;;;5111684;28;20391;-70
2022/03/03 00:03:34;;;;;;;4.00;3.30;;;22.70;28.30;;;;;;5111404;28;20388;-70
2022/03/03 00:05:59;;;;;;;4.27;3.13;;;22.70;28.10;;;;;;5111517;28;20478;-70
2022/03/03 00:08:25;;;;;;;4.40;3.20;;;22.70;28.40;;;;;;5110453;28;20396;-70
2022/03/03 00:10:51;;;;;;;4.70;3.50;;;22.70;28.40;;;;;;5111528;28;20388;-69
2022/03/03 00:13:16;;;;;;;4.45;3.42;;;22.70;28.60;;;;;;5111571;28;20761;-70
2022/03/03 00:15:42;;;;;;;3.93;3.20;;;22.70;28.40;;;;;;5111162;28;20865;-70
2022/03/03 00:18:08;;;;;;;4.60;3.03;;;22.70;28.30;;;;;;5111403;28;20827;-70
2022/03/03 00:20:33;;;;;;;4.93;3.30;;;22.70;28.20;;;;;;5110256;28;20388;-70
2022/03/03 00:22:59;;;;;;;4.00;3.25;;;22.70;28.40;;;;;;5110739;28;20422;-72
2022/03/03 00:25:25;;;;;;;4.93;3.47;;;22.60;28.20;;;;;;5110279;28;20856;-70
2022/03/03 00:27:50;;;;;;;4.90;3.60;;;22.60;28.20;;;;;;5110126;28;20470;-71
2022/03/03 00:30:16;;;;;;;4.50;3.50;;;22.60;27.90;;;;;;5111813;28;20881;-70
2022/03/03 00:32:42;;;;;;;4.05;3.42;;;22.60;28.00;;;;;;5111994;28;20438;-70
2022/03/03 00:35:12;;;;;;;5.03;3.37;;;22.60;27.90;;;;;;5110355;28;20397;-71
2022/03/03 00:37:38;;;;;;;4.03;3.20;;;22.60;28.30;;;;;;5111105;28;20414;-70
2022/03/03 00:40:05;;;;;;;4.70;3.60;;;22.60;28.40;;;;;;5111642;28;20405;-70
2022/03/03 00:42:31;;;;;;;4.22;3.40;;;22.60;28.10;;;;;;5113220;28;20459;-70
2022/03/03 00:44:57;;;;;;;4.15;3.22;;;22.60;28.30;;;;;;5115621;28;20415;-70
2022/03/03 00:47:23;;;;;;;4.28;3.20;;;22.60;28.30;;;;;;5115698;28;20392;-70
2022/03/03 00:49:49;;;;;;;4.30;3.33;;;22.60;28.30;;;;;;5115258;28;20422;-70
2022/03/03 00:52:14;;;;;;;4.68;3.28;;;22.50;28.00;;;;;;5115695;28;20473;-71
2022/03/03 00:54:40;;;;;;;4.20;3.17;;;22.50;28.10;;;;;;5114350;28;20384;-70
2022/03/03 00:57:06;;;;;;;4.00;3.13;;;22.50;28.10;;;;;;5115632;28;20388;-70
2022/03/03 00:59:31;;;;;;;4.23;3.03;;;22.50;28.20;;;;;;5115380;28;20479;-70
2022/03/03 01:01:57;;;;;;;4.20;3.20;;;22.50;28.00;;;;;;5115196;28;20396;-70
2022/03/03 01:04:23;;;;;;;3.67;3.10;;;22.50;28.10;;;;;;5114188;28;20435;-71
2022/03/03 01:06:49;;;;;;;4.35;3.40;;;22.50;28.20;;;;;;5114241;28;20758;-70
2022/03/03 01:09:15;;;;;;;4.38;3.35;;;22.40;28.30;;;;;;5115408;28;20493;-70
2022/03/03 01:11:40;;;;;;;3.97;3.27;;;22.40;28.20;;;;;;5114819;28;20982;-70
2022/03/03 01:14:06;;;;;;;4.25;3.20;;;22.40;28.20;;;;;;5115233;28;20433;-70
2022/03/03 01:16:32;;;;;;;3.93;3.30;;;22.40;28.10;;;;;;5113900;28;20420;-70
2022/03/03 01:18:57;;;;;;;4.15;3.17;;;22.40;28.20;;;;;;5115078;28;20411;-70
2022/03/03 01:21:23;;;;;;;3.60;3.17;;;22.40;28.20;;;;;;5115173;28;20439;-70
2022/03/03 01:23:48;;;;;;;4.10;3.30;;;22.40;28.30;;;;;;5114634;28;20462;-70
2022/03/03 01:26:14;;;;;;;4.07;3.47;;;22.40;28.20;;;;;;5113803;28;20396;-70
2022/03/03 01:28:40;;;;;;;4.07;3.15;;;22.30;28.20;;;;;;5114932;28;20792;-70
2022/03/03 01:31:06;;;;;;;3.80;3.20;;;22.30;28.00;;;;;;5114899;28;20389;-70
2022/03/03 01:33:32;;;;;;;4.10;3.10;;;22.30;28.20;;;;;;5114738;28;20376;-70
2022/03/03 01:35:57;;;;;;;3.60;3.00;;;22.40;28.30;;;;;;5114675;28;20388;-70
2022/03/03 01:38:23;;;;;;;4.50;3.35;;;22.40;28.20;;;;;;5114904;28;20384;-70
2022/03/03 01:40:49;;;;;;;4.10;3.20;;;22.40;28.10;;;;;;5114789;28;20384;-70
2022/03/03 01:43:14;;;;;;;4.40;3.20;;;22.40;28.20;;;;;;5114742;28;20454;-70
2022/03/03 01:45:40;;;;;;;3.78;3.08;;;22.40;27.90;;;;;;5113828;28;20451;-70
2022/03/03 01:48:06;;;;;;;3.70;3.00;;;22.30;27.90;;;;;;5113512;28;20450;-70
2022/03/03 01:50:32;;;;;;;3.63;2.80;;;22.30;28.00;;;;;;5113413;28;20387;-70
2022/03/03 01:52:57;;;;;;;3.27;2.70;;;22.30;28.00;;;;;;5111718;28;20480;-70
2022/03/03 01:55:24;;;;;;;3.65;2.90;;;22.20;28.10;;;;;;5113418;28;20841;-70
2022/03/03 01:57:51;;;;;;;3.58;2.65;;;22.20;28.00;;;;;;5112670;28;21202;-70
2022/03/03 02:00:18;;;;;;;2.95;2.53;;;22.20;28.00;;;;;;5113481;28;20396;-70
2022/03/03 02:02:45;;;;;;;3.60;2.88;;;22.20;28.10;;;;;;5113386;28;20377;-70
2022/03/03 02:05:11;;;;;;;3.90;3.00;;;22.20;27.90;;;;;;5113219;28;20447;-71
2022/03/03 02:07:37;;;;;;;3.50;3.20;;;22.20;28.00;;;;;;5112985;28;20376;-70
2022/03/03 02:10:04;;;;;;;3.20;2.70;;;22.10;27.90;;;;;;5111914;28;20388;-70
2022/03/03 02:12:30;;;;;;;3.50;2.67;;;22.10;27.90;;;;;;5111856;28;20392;-70
2022/03/03 02:14:57;;;;;;;3.30;2.67;;;22.10;27.90;;;;;;5111844;28;20400;-70
2022/03/03 02:17:23;;;;;;;3.30;2.70;;;22.10;27.90;;;;;;5113043;28;20376;-70
2022/03/03 02:19:48;;;;;;;3.53;2.80;;;22.10;27.80;;;;;;5111260;28;20385;-71
2022/03/03 02:22:14;;;;;;;3.47;2.97;;;22.10;27.80;;;;;;5112944;28;20384;-70
2022/03/03 02:24:40;;;;;;;3.57;2.80;;;22.10;27.80;;;;;;5112855;28;20412;-70
2022/03/03 02:27:06;;;;;;;3.47;2.78;;;22.00;27.80;;;;;;5112928;28;20466;-70
2022/03/03 02:29:33;;;;;;;3.80;2.92;;;22.10;27.80;;;;;;5112692;28;20373;-70
2022/03/03 02:32:00;;;;;;;2.97;2.67;;;22.10;27.70;;;;;;5112582;28;20400;-70
2022/03/03 02:34:26;;;;;;;3.20;2.80;;;22.10;27.70;;;;;;5112783;28;20389;-70
2022/03/03 02:36:52;;;;;;;3.70;2.80;;;22.10;27.70;;;;;;5112637;28;20395;-70
2022/03/03 02:39:18;;;;;;;3.50;2.70;;;22.00;27.60;;;;;;5112661;28;20757;-70
2022/03/03 02:41:43;;;;;;;3.72;2.70;;;22.00;27.60;;;;;;5112309;28;20384;-70
2022/03/03 02:44:09;;;;;;;3.23;2.70;;;22.00;27.60;;;;;;5112621;28;20400;-70
2022/03/03 02:46:35;;;;;;;3.73;3.00;;;22.00;27.60;;;;;;5047958;28;1819815;-70
2022/03/03 02:49:01;;;;;;;3.10;2.67;;;22.00;27.70;;;;;;5113506;28;20396;-70
2022/03/03 02:51:26;;;;;;;3.23;2.90;;;22.00;27.80;;;;;;5113600;28;20738;-70
2022/03/03 02:53:52;;;;;;;3.40;2.80;;;21.90;27.60;;;;;;5113007;28;20468;-70
2022/03/03 02:56:18;;;;;;;3.63;2.93;;;21.90;27.60;;;;;;5113425;28;20474;-70
2022/03/03 02:58:44;;;;;;;3.38;2.72;;;21.90;27.60;;;;;;5113329;28;20391;-70
2022/03/03 03:01:10;;;;;;;3.30;2.90;;;21.90;27.60;;;;;;5113354;28;20403;-69
2022/03/03 03:03:36;;;;;;;4.00;2.80;;;21.90;27.50;;;;;;5112952;28;20410;-70
2022/03/03 03:06:02;;;;;;;3.23;2.73;;;21.90;27.50;;;;;;5112139;28;20464;-70
2022/03/03 03:08:27;;;;;;;3.47;2.60;;;21.90;27.50;;;;;;5113135;28;20467;-70
2022/03/03 03:10:53;;;;;;;3.35;2.75;;;21.90;27.50;;;;;;5113011;28;20385;-70
2022/03/03 03:13:19;;;;;;;3.75;2.95;;;21.90;27.60;;;;;;5113137;27;20383;-70
2022/03/03 03:15:45;;;;;;;3.10;2.80;;;21.90;27.50;;;;;;5112552;28;20393;-70
2022/03/03 03:18:13;;;;;;;3.05;2.45;;;21.80;27.50;;;;;;5112956;28;20377;-70
2022/03/03 03:20:41;;;;;;;3.75;2.95;;;21.80;27.40;;;;;;5112979;28;20390;-70
2022/03/03 03:23:08;;;;;;;3.35;2.78;;;21.80;27.30;;;;;;5112874;28;20918;-70
2022/03/03 03:25:37;;;;;;;3.22;2.50;;;21.80;27.50;;;;;;5111468;28;20925;-70
2022/03/03 03:28:05;;;;;;;3.05;2.50;;;21.80;27.50;;;;;;5112489;28;20419;-70
2022/03/03 03:30:31;;;;;;;4.27;2.90;;;21.80;27.40;;;;;;5112689;28;20372;-70
2022/03/03 03:32:56;;;;;;;3.40;2.70;;;21.80;27.40;;;;;;5112638;28;20411;-70
2022/03/03 03:35:23;;;;;;;2.95;2.55;;;21.80;27.30;;;;;;5111355;28;20754;-70
2022/03/03 03:37:49;;;;;;;3.63;2.80;;;21.80;27.30;;;;;;5112147;28;20385;-70
2022/03/03 03:40:14;;;;;;;3.53;2.88;;;21.80;27.40;;;;;;5112572;28;20388;-70
2022/03/03 03:42:40;;;;;;;3.37;2.60;;;21.80;27.40;;;;;;5112485;28;20395;-70
2022/03/03 03:45:07;;;;;;;3.95;2.70;;;21.80;27.30;;;;;;5112424;27;20508;-70
2022/03/03 03:47:32;;;;;;;3.33;2.40;;;21.80;27.40;;;;;;5112306;28;20394;-70
2022/03/03 03:50:02;;;;;;;3.13;2.72;;;21.80;27.30;;;;;;5111898;28;20396;-70
2022/03/03 03:52:31;;;;;;;2.92;2.47;;;21.80;27.30;;;;;;5112452;28;20380;-70
2022/03/03 03:54:57;;;;;;;2.90;2.50;;;21.80;27.40;;;;;;5110920;28;20765;-70
2022/03/03 03:57:23;;;;;;;3.03;2.40;;;21.80;27.30;;;;;;5112309;28;20383;-70
2022/03/03 03:59:48;;;;;;;2.80;2.47;;;21.80;27.30;;;;;;5110488;28;20388;-70
2022/03/03 04:02:14;;;;;;;3.28;2.40;;;21.80;27.30;;;;;;5111996;28;20392;-70
2022/03/03 04:04:40;;;;;;;3.67;2.47;;;21.80;27.20;;;;;;5111673;28;20396;-70
2022/03/03 04:07:05;;;;;;;3.55;2.50;;;21.80;27.20;;;;;;5112496;28;20479;-70
2022/03/03 04:09:31;;;;;;;4.30;2.70;;;21.80;27.30;;;;;;5111380;28;20477;-70
2022/03/03 04:11:57;;;;;;;3.30;2.70;;;21.80;27.30;;;;;;5112451;28;21052;-72
2022/03/03 04:14:22;;;;;;;3.08;2.60;;;21.90;27.80;;;;;;5111921;28;20380;-71
2022/03/03 04:16:48;;;;;;;3.80;3.03;;;21.90;28.00;;;;;;5110652;28;20479;-71
2022/03/03 04:19:14;;;;;;;7.10;2.73;;;22.00;29.00;;;;;;5111940;28;20368;-71
2022/03/03 04:21:40;;;;;;;6.20;2.67;;;22.10;28.80;;;;;;5111696;28;20865;-70
2022/03/03 04:24:06;;;;;;;5.38;2.53;;;22.00;29.30;;;;;;5111522;28;20380;-71
2022/03/03 04:26:34;;;;;;;5.23;3.27;;;22.00;29.60;;;;;;5111945;28;20384;-71
2022/03/03 04:29:00;;;;;;;4.23;2.90;;;22.00;29.40;;;;;;5112032;28;20415;-71
2022/03/03 04:31:27;;;;;;;3.58;2.42;;;22.00;29.70;;;;;;5112782;28;20503;-71
2022/03/03 04:33:53;;;;;;;6.15;2.80;;;22.10;29.40;;;;;;5111553;28;20412;-71
2022/03/03 04:36:18;;;;;;;7.88;3.03;;;22.10;30.10;;;;;;5111684;28;20422;-71
2022/03/03 04:38:47;;;;;;;5.50;2.70;;;22.20;30.10;;;;;;5111820;28;20440;-71
2022/03/03 04:41:13;;;;;;;4.43;2.67;;;22.20;29.60;;;;;;5111670;28;20388;-71
2022/03/03 04:43:39;;;;;;;5.47;2.53;;;22.30;29.80;;;;;;5111620;28;20445;-71
2022/03/03 04:46:05;;;;;;;5.28;2.65;;;22.20;30.00;;;;;;5111096;28;20420;-71
2022/03/03 04:48:31;;;;;;;4.70;2.70;;;22.30;30.30;;;;;;5110454;28;20437;-72
2022/03/03 04:50:58;;;;;;;6.85;2.63;;;22.30;30.30;;;;;;5111253;28;20393;-71
2022/03/03 04:53:25;;;;;;;7.10;2.55;;;22.40;30.20;;;;;;5110318;28;20396;-71
2022/03/03 04:55:51;;;;;;;4.50;2.65;;;22.30;30.00;;;;;;5110990;28;20438;-71
2022/03/03 04:58:17;;;;;;;4.60;2.55;;;22.40;30.00;;;;;;5110286;28;20392;-71
2022/03/03 05:00:43;;;;;;;6.27;2.90;;;22.30;29.90;;;;;;5111286;28;20388;-71
2022/03/03 05:03:09;;;;;;;5.93;2.35;;;22.30;30.20;;;;;;5111319;28;20383;-70
2022/03/03 05:05:34;;;;;;;5.20;2.33;;;22.30;30.50;;;;;;5111161;28;20815;-71
2022/03/03 05:08:00;;;;;;;8.83;2.77;;;22.40;30.10;;;;;;5110830;28;20785;-70
2022/03/03 05:10:26;;;;;;;6.28;2.80;;;22.30;30.20;;;;;;5109815;28;20921;-70
2022/03/03 05:12:51;;;;;;;6.77;2.90;;;22.30;30.30;;;;;;5111268;28;20380;-71
2022/03/03 05:15:18;;;;;;;7.28;2.63;;;22.30;30.10;;;;;;5110182;28;20388;-71
2022/03/03 05:17:43;;;;;;;7.47;2.55;;;22.30;30.00;;;;;;5110023;28;20952;-70
2022/03/03 05:20:10;;;;;;;12.67;2.93;;;22.20;29.60;;;;;;5110550;28;20503;-70
2022/03/03 05:22:35;;;;;;;4.97;2.58;;;22.20;29.40;;;;;;5109377;28;20384;-71
2022/03/03 05:25:01;;;;;;;8.17;2.80;;;22.20;29.30;;;;;;5109930;28;20415;-71
2022/03/03 05:27:27;;;;;;;7.32;2.70;;;22.10;29.50;;;;;;5109690;28;20888;-71
2022/03/03 05:29:54;;;;;;;4.28;2.67;;;22.00;29.70;;;;;;5113093;28;20413;-71
2022/03/03 05:32:20;;;;;;;4.32;2.50;;;21.90;29.60;;;;;;5112969;28;20404;-71
2022/03/03 05:34:45;;;;;;;4.80;2.80;;;21.90;29.80;;;;;;5114561;28;20723;-71
2022/03/03 05:37:14;;;;;;;4.60;2.73;;;21.90;29.70;;;;;;5114966;28;20387;-71
2022/03/03 05:39:42;;;;;;;3.72;2.35;;;21.80;29.50;;;;;;5115006;27;20424;-71
2022/03/03 05:42:08;;;;;;;5.82;2.65;;;21.90;29.30;;;;;;5114539;28;20373;-71
2022/03/03 05:44:34;;;;;;;7.73;2.43;;;21.90;28.90;;;;;;5113096;28;20924;-71
2022/03/03 05:47:01;;;;;;;6.33;2.70;;;22.00;29.20;;;;;;5114342;28;20499;-71
2022/03/03 05:49:28;;;;;;;5.57;2.75;;;22.00;29.70;;;;;;5113414;28;20381;-71
2022/03/03 05:51:53;;;;;;;7.50;2.95;;;22.00;28.80;;;;;;5112812;28;20393;-71
2022/03/03 05:54:19;;;;;;;7.77;2.70;;;21.90;29.00;;;;;;5113466;28;20411;-70
2022/03/03 05:56:48;;;;;;;5.05;2.80;;;21.90;29.30;;;;;;5114585;28;20392;-70
2022/03/03 05:59:15;;;;;;;4.70;2.53;;;22.00;29.10;;;;;;5114619;28;20376;-70
2022/03/03 06:01:42;;;;;;;5.33;2.87;;;22.00;28.60;;;;;;5114100;28;20482;-70
2022/03/03 06:04:11;;;;;;;8.80;2.90;;;21.90;29.00;;;;;;5113831;28;20380;-70
2022/03/03 06:06:38;;;;;;;5.90;3.03;;;21.90;28.90;;;;;;5114088;28;20410;-70
2022/03/03 06:09:14;;;;;;;4.83;3.10;;;21.90;29.00;;;;;;5112784;28;20377;-70
2022/03/03 06:11:49;;;;;;;7.60;3.10;;;21.90;28.70;;;;;;5114231;28;20385;-71
2022/03/03 06:14:35;;;;;;;6.13;2.80;;;21.90;28.60;;;;;;5113027;28;20381;-71
2022/03/03 06:17:01;;;;;;;6.82;2.70;;;21.90;28.50;;;;;;5114217;28;20426;-71
2022/03/03 06:19:29;;;;;;;7.10;2.67;;;21.90;28.40;;;;;;5114155;28;20385;-70
2022/03/03 06:21:54;;;;;;;5.72;2.53;;;21.90;28.30;;;;;;5113476;28;20395;-71
2022/03/03 06:24:20;;;;;;;5.50;2.80;;;21.90;28.30;;;;;;5112766;28;20763;-71
2022/03/03 06:26:47;;;;;;;6.37;2.70;;;21.80;28.30;;;;;;5112581;28;20821;-71
2022/03/03 06:29:13;;;;;;;4.57;2.90;;;21.80;28.30;;;;;;5114040;28;20434;-70
2022/03/03 06:31:39;;;;;;;4.45;2.90;;;21.80;28.20;;;;;;5112625;28;20396;-71
2022/03/03 06:34:07;;;;;;;4.57;2.90;;;21.80;28.10;;;;;;5113343;28;21004;-71
2022/03/03 06:36:33;;;;;;;4.15;2.92;;;21.80;28.10;;;;;;5113775;28;20384;-71
2022/03/03 06:38:58;;;;;;;4.32;2.78;;;21.80;28.00;;;;;;5113346;27;20388;-71
2022/03/03 06:41:25;;;;;;;5.45;3.03;;;21.80;27.90;;;;;;5112919;28;20395;-71
2022/03/03 06:43:52;;;;;;;4.47;3.07;;;21.80;27.90;;;;;;5113507;28;20441;-71
2022/03/03 06:46:18;;;;;;;4.83;3.07;;;21.80;27.80;;;;;;5113391;28;20506;-70
2022/03/03 06:48:45;;;;;;;4.40;2.63;;;21.80;27.80;;;;;;5113586;28;20965;-70
2022/03/03 06:51:15;;;;;;;5.25;3.08;;;21.80;27.80;;;;;;5112160;28;20395;-70
2022/03/03 06:53:44;;;;;;;4.43;3.00;;;21.80;27.70;;;;;;5113514;28;20429;-71
2022/03/03 06:56:12;;;;;;;3.73;2.80;;;21.70;27.60;;;;;;5112902;28;20476;-71
2022/03/03 06:58:39;;;;;;;4.97;3.00;;;21.70;27.60;;;;;;5113451;28;20882;-70
2022/03/03 07:01:07;;;;;;;4.90;3.08;;;21.70;27.50;;;;;;5111956;28;20376;-70
2022/03/03 07:03:34;;;;;;;3.95;2.88;;;21.70;27.50;;;;;;5111989;28;20387;-71
2022/03/03 07:06:01;;;;;;;4.03;2.85;;;21.80;27.60;;;;;;5111312;28;20421;-70
2022/03/03 07:08:27;;;;;;;4.00;2.88;;;21.70;27.60;;;;;;5113230;28;20389;-71
2022/03/03 07:10:53;;;;;;;3.85;3.08;;;21.70;27.60;;;;;;5113041;28;20513;-69
2022/03/03 07:13:20;;;;;;;3.80;2.85;;;21.60;27.70;;;;;;5111908;28;20406;-71
2022/03/03 07:15:53;;;;;;;4.38;3.00;;;21.60;27.70;;;;;;5113032;28;20388;-71
2022/03/03 07:18:21;;;;;;;3.70;2.97;;;21.60;27.60;;;;;;5111723;28;20475;-70
2022/03/03 07:21:05;;;;;;;4.70;3.10;;;21.60;27.60;;;;;;5111618;28;20389;-70
2022/03/03 07:23:40;;;;;;;4.40;2.97;;;21.60;27.60;;;;;;5112926;28;20388;-70
2022/03/03 07:26:10;;;;;;;4.07;3.10;;;21.60;27.60;;;;;;5110864;28;20430;-70
2022/03/03 07:28:40;;;;;;;4.10;3.00;;;21.60;27.50;;;;;;5112649;28;20380;-70
2022/03/03 07:31:07;;;;;;;3.97;3.00;;;21.60;27.50;;;;;;5111306;28;20380;-71
2022/03/03 07:33:45;;;;;;;4.15;3.10;;;21.50;27.50;;;;;;5112744;28;20425;-71
2022/03/03 07:36:17;;;;;;;3.97;2.70;;;21.60;27.50;;;;;;5110698;28;20388;-70
2022/03/03 07:38:55;;;;;;;4.13;3.08;;;21.60;27.50;;;;;;5112692;28;20388;-71
2022/03/03 07:41:22;;;;;;;3.40;2.70;;;21.60;27.50;;;;;;5112401;28;20888;-72
2022/03/03 07:43:49;;;;;;;3.70;2.80;;;21.60;27.40;;;;;;5111220;28;20424;-71
2022/03/03 07:46:15;;;;;;;3.10;2.60;;;21.60;27.40;;;;;;5110732;28;20932;-70
2022/03/03 07:48:44;;;;;;;4.30;2.90;;;21.60;27.40;;;;;;5111207;28;20380;-71
2022/03/03 07:51:10;;;;;;;3.90;2.95;;;21.60;27.40;;;;;;5111995;28;20391;-71
2022/03/03 07:53:35;;;;;;;3.38;2.70;;;21.70;27.40;;;;;;5112294;28;20385;-72
2022/03/03 07:56:04;;;;;;;3.17;2.80;;;21.70;27.50;;;;;;5110420;28;20417;-71
2022/03/03 07:58:33;;;;;;;3.38;2.80;;;21.70;27.50;;;;;;5111003;28;20384;-72
2022/03/03 08:01:00;;;;;;;3.53;2.67;;;21.70;27.50;;;;;;5112253;28;20422;-71
2022/03/03 08:03:25;;;;;;;4.57;2.63;;;21.80;27.50;;;;;;5112236;28;20395;-69
2022/03/03 08:05:56;;;;;;;3.75;2.72;;;21.80;28.10;;;;;;5110553;28;20921;-70
2022/03/03 08:08:25;;;;;;;3.10;2.60;;;21.80;27.50;;;;;;5112199;28;20380;-70
2022/03/03 08:10:58;;;;;;;4.00;2.60;;;21.80;27.50;;;;;;5112042;28;20400;-70
2022/03/03 08:13:28;;;;;;;3.72;2.60;;;21.90;27.40;;;;;;5110777;28;20437;-71
2022/03/03 08:15:54;;;;;;;3.65;2.90;;;21.90;27.50;;;;;;5110402;28;20396;-72
2022/03/03 08:18:20;;;;;;;4.47;2.78;;;21.90;27.50;;;;;;5110490;28;20384;-72
2022/03/03 08:20:46;;;;;;;4.20;3.07;;;21.90;27.90;;;;;;5111907;28;20444;-71
2022/03/03 08:23:12;;;;;;;3.58;2.78;;;21.90;27.40;;;;;;5111605;28;20816;-70
2022/03/03 08:25:38;;;;;;;3.58;2.63;;;22.00;27.40;;;;;;5110445;28;20504;-70
2022/03/03 08:28:06;;;;;;;4.00;2.80;;;22.10;27.40;;;;;;5110013;28;20471;-70
2022/03/03 08:30:34;;;;;;;3.42;2.60;;;22.10;27.30;;;;;;5111915;28;20392;-71
2022/03/03 08:33:11;;;;;;;3.43;2.47;;;22.10;27.30;;;;;;5111744;28;20387;-70
2022/03/03 08:35:40;;;;;;;3.10;2.45;;;22.20;27.30;;;;;;5111801;28;20377;-70
2022/03/03 08:38:28;;;;;;;3.08;2.40;;;22.20;27.30;;;;;;5111339;28;20403;-70
2022/03/03 08:40:57;;;;;;;3.58;2.78;;;22.20;27.20;;;;;;5110438;28;20407;-72
2022/03/03 08:43:26;;;;;;;3.03;2.38;;;22.30;27.20;;;;;;5111757;28;20445;-72
2022/03/03 08:45:55;;;;;;;3.33;2.55;;;22.30;27.10;;;;;;5111233;28;20482;-71
2022/03/03 08:48:26;;;;;;;3.47;2.28;;;22.30;27.10;;;;;;5110151;28;20878;-70
2022/03/03 08:50:52;;;;;;;2.72;2.20;;;22.30;27.00;;;;;;5111683;28;20395;-71
2022/03/03 08:53:17;;;;;;;3.30;2.28;;;22.30;27.10;;;;;;5110223;28;20750;-71
2022/03/03 08:55:43;;;;;;;3.83;2.57;;;22.30;27.00;;;;;;5111549;28;20437;-70
2022/03/03 08:58:10;;;;;;;3.00;2.33;;;22.40;27.00;;;;;;5111115;28;20419;-71
2022/03/03 09:00:37;;;;;;;2.67;2.20;;;22.40;27.00;;;;;;5110297;28;20830;-70
2022/03/03 09:03:03;;;;;;;3.35;2.40;;;22.40;27.00;;;;;;5112240;28;20384;-70
2022/03/03 09:05:29;;;;;;;2.55;2.20;;;22.40;27.00;;;;;;5115575;28;20412;-70
2022/03/03 09:07:55;;;;;;;3.30;2.60;;;22.40;26.90;;;;;;5115155;28;20380;-70
2022/03/03 09:10:21;;;;;;;3.00;2.38;;;22.40;26.90;;;;;;5115429;28;20385;-71
2022/03/03 09:12:47;;;;;;;4.00;2.60;;;22.40;26.90;;;;;;5115363;28;20380;-72
2022/03/03 09:15:13;;;;;;;3.15;2.30;;;22.40;26.90;;;;;;5115493;28;20383;-70
2022/03/03 09:17:39;;;;;;;3.13;2.30;;;22.50;27.00;;;;;;5115352;28;20407;-72
2022/03/03 09:20:11;;;;;;;4.75;2.60;;;22.50;27.10;;;;;;5114858;28;20381;-72
2022/03/03 09:22:37;;;;;;;5.35;3.40;;;22.50;27.30;;;;;;5115324;28;20380;-71
2022/03/03 09:25:03;;;;;;;9.70;5.90;;;22.60;26.80;;;;;;5115072;28;20457;-71
2022/03/03 09:27:29;;;;;;;8.75;4.90;;;22.80;26.90;;;;;;5115187;28;20384;-71
2022/03/03 09:29:55;;;;;;;6.03;3.78;;;22.90;26.90;;;;;;5113415;28;20398;-71
2022/03/03 09:32:20;;;;;;;9.30;3.50;;;22.90;27.00;;;;;;5112813;28;20389;-70
2022/03/03 09:34:46;;;;;;;6.63;3.15;;;22.80;27.20;;;;;;5104493;28;20865;-70
2022/03/03 09:37:13;;;;;;;4.97;3.33;;;22.80;27.40;;;;;;5112518;28;20381;-70
2022/03/03 09:39:39;;;;;;;5.43;3.05;;;22.90;27.40;;;;;;5112359;28;20908;-70
2022/03/03 09:42:05;;;;;;;5.07;3.10;;;22.90;27.30;;;;;;5113013;28;20388;-70
2022/03/03 09:44:31;;;;;;;4.30;2.92;;;22.80;27.20;;;;;;5110731;28;20404;-70
2022/03/03 09:46:56;;;;;;;6.10;3.27;;;22.80;27.10;;;;;;5111906;28;20408;-70
2022/03/03 09:49:22;;;;;;;4.07;2.80;;;22.90;27.20;;;;;;5112042;28;20403;-70
2022/03/03 09:51:50;;;;;;;3.38;2.85;;;22.90;27.10;;;;;;5112142;28;20413;-70
2022/03/03 09:54:16;;;;;;;4.47;2.88;;;22.90;27.10;;;;;;5112582;28;20392;-70
2022/03/03 09:56:42;;;;;;;3.50;2.55;;;22.90;27.10;;;;;;5112215;28;20449;-69
2022/03/03 09:59:08;;;;;;;4.40;3.00;;;22.90;27.00;;;;;;5113249;28;20475;-70
2022/03/03 10:01:35;;;;;;;4.80;2.80;;;22.90;26.90;;;;;;5111858;28;20514;-70
2022/03/03 10:04:15;;;;;;;3.95;2.65;;;22.90;26.90;;;;;;5112574;28;20392;-70
2022/03/03 10:06:42;;;;;;;4.30;2.83;;;22.90;26.90;;;;;;5110496;28;20400;-70
2022/03/03 10:09:09;;;;;;;2.92;2.50;;;22.80;26.80;;;;;;5111454;28;20414;-71
2022/03/03 10:11:59;;;;;;;3.63;2.40;;;22.80;26.80;;;;;;5112849;28;20390;-70
2022/03/03 10:14:31;;;;;;;4.30;2.40;;;22.80;26.80;;;;;;5110244;28;20832;-70
2022/03/03 10:16:58;;;;;;;3.65;2.67;;;22.80;26.90;;;;;;5110976;28;20384;-70
2022/03/03 10:19:24;;;;;;;4.85;2.40;;;22.80;26.90;;;;;;5112706;28;20388;-70
2022/03/03 10:21:49;;;;;;;4.07;2.60;;;22.80;26.90;;;;;;5112728;28;20433;-69
2022/03/03 10:24:29;;;;;;;3.30;2.50;;;22.90;26.80;;;;;;5112009;28;20727;-70
2022/03/03 10:27:01;;;;;;;3.05;2.45;;;22.90;26.80;;;;;;5110370;28;20396;-72
2022/03/03 10:29:28;;;;;;;3.80;2.70;;;22.90;26.80;;;;;;5109229;28;20897;-70
2022/03/03 10:31:55;;;;;;;3.43;2.50;;;22.90;26.70;;;;;;5110889;28;20427;-72
2022/03/03 10:34:31;;;;;;;2.95;2.58;;;22.90;26.70;;;;;;5110811;28;20390;-70
2022/03/03 10:37:01;;;;;;;2.78;2.08;;;22.90;26.70;;;;;;5110571;28;20783;-71
2022/03/03 10:39:48;;;;;;;2.85;2.35;;;22.90;26.70;;;;;;5112339;28;20399;-71
2022/03/03 10:42:22;;;;;;;3.13;2.40;;;22.90;26.60;;;;;;5108415;28;20754;-71
2022/03/03 10:44:50;;;;;;;3.00;2.28;;;22.90;26.60;;;;;;5112023;28;20412;-70
2022/03/03 10:47:24;;;;;;;2.90;2.20;;;22.90;26.70;;;;;;5112506;28;20427;-70
2022/03/03 10:49:53;;;;;;;3.58;2.33;;;22.80;26.60;;;;;;5112206;28;20396;-70
2022/03/03 10:52:32;;;;;;;3.03;2.38;;;22.80;26.70;;;;;;5111653;28;20739;-70
2022/03/03 10:55:08;;;;;;;4.43;2.40;;;22.80;26.60;;;;;;5113357;28;20403;-71
2022/03/03 10:57:36;;;;;;;7.32;2.33;;;22.80;26.80;;;;;;5112209;28;20385;-69
2022/03/03 11:00:07;;;;;;;4.68;2.30;;;22.80;27.10;;;;;;5113049;28;20395;-69
2022/03/03 11:02:34;;;;;;;3.28;2.20;;;22.80;27.30;;;;;;5113339;28;20376;-71
2022/03/03 11:05:00;;;;;;;5.20;2.35;;;22.80;27.30;;;;;;5112641;28;20421;-70
2022/03/03 11:07:26;;;;;;;4.70;2.40;;;22.80;27.50;;;;;;5112710;28;20380;-71
2022/03/03 11:09:53;;;;;;;4.72;2.25;;;22.80;27.50;;;;;;5111833;28;20427;-70
2022/03/03 11:12:19;;;;;;;7.50;2.60;;;22.80;27.70;;;;;;5111424;28;20889;-71
2022/03/03 11:14:46;;;;;;;5.07;2.85;;;22.80;27.40;;;;;;5111123;28;20392;-70
2022/03/03 11:17:13;;;;;;;5.80;2.30;;;22.80;26.70;;;;;;5112640;28;20384;-70
2022/03/03 11:19:38;;;;;;;5.45;2.38;;;22.90;27.70;;;;;;5111304;28;20479;-70
2022/03/03 11:22:05;;;;;;;3.75;2.10;;;22.90;26.90;;;;;;5112278;28;21087;-72
2022/03/03 11:24:38;;;;;;;4.53;2.40;;;22.90;27.00;;;;;;5112397;28;20449;-70
2022/03/03 11:27:04;;;;;;;4.45;2.30;;;23.00;26.90;;;;;;5124999;27;20393;-69
2022/03/03 11:29:32;;;;;;;4.45;2.20;;;23.00;26.90;;;;;;5110948;28;20754;-72
2022/03/03 11:32:17;;;;;;;3.58;2.17;;;23.00;27.00;;;;;;5111438;27;20494;-71
2022/03/03 11:34:45;;;;;;;4.65;2.20;;;23.00;26.80;;;;;;5112581;28;20388;-70
2022/03/03 11:37:15;;;;;;;3.40;2.13;;;23.00;26.80;;;;;;5112588;28;20384;-71
2022/03/03 11:39:46;;;;;;;3.85;2.13;;;23.10;26.90;;;;;;5112709;28;20500;-72
2022/03/03 11:42:18;;;;;;;3.30;2.00;;;23.10;26.80;;;;;;5110686;28;20878;-72
2022/03/03 11:44:44;;;;;;;4.13;2.25;;;23.10;27.30;;;;;;5111026;28;20944;-70
2022/03/03 11:47:42;;;;;;;3.80;2.10;;;23.10;26.50;;;;;;5112137;28;20443;-72
2022/03/03 11:50:25;;;;;;;3.33;2.10;;;23.10;26.60;;;;;;5095408;28;20380;-73
2022/03/03 11:53:02;;;;;;;3.10;2.10;;;23.10;26.60;;;;;;5112513;28;20380;-70
2022/03/03 11:55:46;;;;;;;2.90;2.05;;;23.10;26.60;;;;;;5112345;28;20428;-70
2022/03/03 11:58:40;;;;;;;3.20;1.95;;;23.20;26.60;;;;;;5111933;28;20407;-72
2022/03/03 12:01:09;;;;;;;3.05;2.20;;;23.20;26.60;;;;;;5109953;28;20423;-70
2022/03/03 12:04:05;;;;;;;3.17;1.88;;;23.20;26.60;;;;;;5112274;28;20467;-70
2022/03/03 12:06:43;;;;;;;3.80;2.20;;;23.20;26.60;;;;;;5111805;28;20894;-70
2022/03/03 12:09:26;;;;;;;3.40;2.28;;;23.30;26.60;;;;;;5112145;28;20396;-69
2022/03/03 12:12:19;;;;;;;2.63;1.93;;;23.30;26.60;;;;;;5110704;28;20789;-70
2022/03/03 12:14:53;;;;;;;2.20;1.80;;;23.30;26.50;;;;;;5112141;28;20395;-70
2022/03/03 12:17:34;;;;;;;2.72;1.90;;;23.30;26.50;;;;;;5111951;28;20429;-70
2022/03/03 12:20:40;;;;;;;2.78;2.00;;;23.30;26.60;;;;;;5110519;28;20491;-69
2022/03/03 12:23:30;;;;;;;2.60;1.95;;;23.30;26.60;;;;;;5107570;28;20425;-69
2022/03/03 12:26:00;;;;;;;3.20;2.08;;;23.30;26.60;;;;;;5109160;28;20417;-69
2022/03/03 12:28:45;;;;;;;2.83;1.98;;;23.30;26.70;;;;;;5110094;28;20388;-72
2022/03/03 12:31:29;;;;;;;2.90;1.80;;;23.30;26.50;;;;;;5108403;28;20408;-69
2022/03/03 12:34:02;;;;;;;2.90;1.95;;;23.40;26.60;;;;;;5091426;28;20386;-71
2022/03/03 12:36:31;;;;;;;2.30;1.90;;;23.30;26.50;;;;;;5089962;28;20382;-70
2022/03/03 12:38:57;;;;;;;2.25;1.98;;;23.30;26.60;;;;;;5095555;28;20401;-70
2022/03/03 12:41:25;;;;;;;3.25;2.10;;;23.30;26.50;;;;;;5103990;28;20384;-69
2022/03/03 12:43:52;;;;;;;2.80;2.00;;;23.30;26.50;;;;;;5113226;28;20384;-69
2022/03/03 12:46:18;;;;;;;2.40;2.10;;;23.30;26.50;;;;;;5112693;28;20420;-69
2022/03/03 12:48:46;;;;;;;2.63;2.00;;;23.30;26.40;;;;;;5113220;28;20384;-69
2022/03/03 12:51:12;;;;;;;2.60;2.00;;;23.30;26.50;;;;;;5115947;28;20501;-71